sensor_id;sensor_type;location;lat;lon;timestamp;P1;durP1;ratioP1;P2;durP2;ratioP2
68357;SDS011;55276;53.260;50.222;2022-07-12T00:00:00;22.33;;;15.27;;
68357;SDS011;55276;53.260;50.222;2022-07-12T00:02:27;17.83;;;14.88;;
68357;SDS011;55276;53.260;50.222;2022-07-12T00:04:53;22.30;;;15.30;;
68357;SDS011;55276;53.260;50.222;2022-07-12T00:07:19;22.33;;;15.65;;
68357;SDS011;55276;53.260;50.222;2022-07-12T00:09:46;22.75;;;15.70;;
68357;SDS011;55276;53.260;50.222;2022-07-12T00:12:12;21.75;;;15.25;;
68357;SDS011;55276;53.260;50.222;2022-07-12T00:14:38;26.83;;;15.48;;
68357;SDS011;55276;53.260;50.222;2022-07-12T00:17:04;19.25;;;14.32;;
68357;SDS011;55276;53.260;50.222;2022-07-12T00:19:30;25.80;;;14.93;;
68357;SDS011;55276;53.260;50.222;2022-07-12T00:21:58;27.58;;;15.88;;
68357;SDS011;55276;53.260;50.222;2022-07-12T00:24:24;20.80;;;14.93;;
68357;SDS011;55276;53.260;50.222;2022-07-12T00:26:50;20.80;;;15.73;;
68357;SDS011;55276;53.260;50.222;2022-07-12T00:29:16;19.08;;;13.82;;
68357;SDS011;55276;53.260;50.222;2022-07-12T00:31:42;20.25;;;14.35;;
68357;SDS011;55276;53.260;50.222;2022-07-12T00:34:08;25.65;;;15.30;;
68357;SDS011;55276;53.260;50.222;2022-07-12T00:36:35;22.23;;;15.00;;
68357;SDS011;55276;53.260;50.222;2022-07-12T00:39:02;18.65;;;14.82;;
68357;SDS011;55276;53.260;50.222;2022-07-12T00:41:29;27.48;;;15.25;;
68357;SDS011;55276;53.260;50.222;2022-07-12T00:43:55;23.67;;;14.77;;
68357;SDS011;55276;53.260;50.222;2022-07-12T00:46:22;22.80;;;14.63;;
68357;SDS011;55276;53.260;50.222;2022-07-12T00:48:48;20.73;;;14.73;;
68357;SDS011;55276;53.260;50.222;2022-07-12T00:51:16;19.17;;;14.95;;
68357;SDS011;55276;53.260;50.222;2022-07-12T00:53:43;19.85;;;15.20;;
68357;SDS011;55276;53.260;50.222;2022-07-12T00:56:10;22.98;;;14.52;;
68357;SDS011;55276;53.260;50.222;2022-07-12T00:58:39;20.95;;;14.93;;
68357;SDS011;55276;53.260;50.222;2022-07-12T01:01:06;23.20;;;15.13;;
68357;SDS011;55276;53.260;50.222;2022-07-12T01:03:34;27.48;;;14.70;;
68357;SDS011;55276;53.260;50.222;2022-07-12T01:06:00;23.38;;;15.23;;
68357;SDS011;55276;53.260;50.222;2022-07-12T01:08:27;21.20;;;14.50;;
68357;SDS011;55276;53.260;50.222;2022-07-12T01:10:55;19.05;;;14.57;;
68357;SDS011;55276;53.260;50.222;2022-07-12T01:15:48;22.88;;;14.80;;
68357;SDS011;55276;53.260;50.222;2022-07-12T01:18:15;22.67;;;15.02;;
68357;SDS011;55276;53.260;50.222;2022-07-12T01:20:42;23.17;;;14.60;;
68357;SDS011;55276;53.260;50.222;2022-07-12T01:23:11;21.73;;;14.10;;
68357;SDS011;55276;53.260;50.222;2022-07-12T01:25:40;19.77;;;14.13;;
68357;SDS011;55276;53.260;50.222;2022-07-12T01:28:06;20.55;;;14.05;;
68357;SDS011;55276;53.260;50.222;2022-07-12T01:30:33;25.25;;;14.68;;
68357;SDS011;55276;53.260;50.222;2022-07-12T01:32:59;22.27;;;14.50;;
68357;SDS011;55276;53.260;50.222;2022-07-12T01:35:26;20.10;;;13.85;;
68357;SDS011;55276;53.260;50.222;2022-07-12T01:37:54;21.92;;;13.52;;
68357;SDS011;55276;53.260;50.222;2022-07-12T01:40:21;18.10;;;13.82;;
68357;SDS011;55276;53.260;50.222;2022-07-12T01:42:47;21.95;;;13.80;;
68357;SDS011;55276;53.260;50.222;2022-07-12T01:45:14;16.30;;;13.45;;
68357;SDS011;55276;53.260;50.222;2022-07-12T01:47:40;22.30;;;13.48;;
68357;SDS011;55276;53.260;50.222;2022-07-12T01:50:07;19.02;;;13.75;;
68357;SDS011;55276;53.260;50.222;2022-07-12T01:52:35;19.20;;;13.65;;
68357;SDS011;55276;53.260;50.222;2022-07-12T01:55:02;16.63;;;13.05;;
68357;SDS011;55276;53.260;50.222;2022-07-12T01:57:28;24.55;;;14.07;;
68357;SDS011;55276;53.260;50.222;2022-07-12T01:59:55;19.35;;;13.13;;
68357;SDS011;55276;53.260;50.222;2022-07-12T02:02:23;21.63;;;13.25;;
68357;SDS011;55276;53.260;50.222;2022-07-12T02:04:54;18.98;;;13.82;;
68357;SDS011;55276;53.260;50.222;2022-07-12T02:07:20;20.77;;;13.23;;
68357;SDS011;55276;53.260;50.222;2022-07-12T02:09:48;22.50;;;13.77;;
68357;SDS011;55276;53.260;50.222;2022-07-12T02:12:18;18.58;;;13.02;;
68357;SDS011;55276;53.260;50.222;2022-07-12T02:14:44;21.65;;;12.90;;
68357;SDS011;55276;53.260;50.222;2022-07-12T02:17:10;22.63;;;13.02;;
68357;SDS011;55276;53.260;50.222;2022-07-12T02:19:37;20.42;;;12.93;;
68357;SDS011;55276;53.260;50.222;2022-07-12T02:22:03;19.33;;;12.55;;
68357;SDS011;55276;53.260;50.222;2022-07-12T02:24:29;21.35;;;12.32;;
68357;SDS011;55276;53.260;50.222;2022-07-12T02:26:55;20.35;;;12.57;;
68357;SDS011;55276;53.260;50.222;2022-07-12T02:29:21;21.08;;;11.88;;
68357;SDS011;55276;53.260;50.222;2022-07-12T02:31:47;18.48;;;12.68;;
68357;SDS011;55276;53.260;50.222;2022-07-12T02:34:13;18.83;;;12.13;;
68357;SDS011;55276;53.260;50.222;2022-07-12T02:36:39;18.50;;;12.20;;
68357;SDS011;55276;53.260;50.222;2022-07-12T02:41:33;16.20;;;11.25;;
68357;SDS011;55276;53.260;50.222;2022-07-12T02:43:59;21.55;;;12.18;;
68357;SDS011;55276;53.260;50.222;2022-07-12T02:46:25;20.43;;;12.23;;
68357;SDS011;55276;53.260;50.222;2022-07-12T02:48:51;17.42;;;12.35;;
68357;SDS011;55276;53.260;50.222;2022-07-12T02:51:17;19.13;;;12.48;;
68357;SDS011;55276;53.260;50.222;2022-07-12T02:53:43;21.20;;;12.13;;
68357;SDS011;55276;53.260;50.222;2022-07-12T02:56:10;16.63;;;11.65;;
68357;SDS011;55276;53.260;50.222;2022-07-12T02:58:37;19.38;;;12.23;;
68357;SDS011;55276;53.260;50.222;2022-07-12T03:01:03;24.23;;;12.23;;
68357;SDS011;55276;53.260;50.222;2022-07-12T03:03:29;23.00;;;12.20;;
68357;SDS011;55276;53.260;50.222;2022-07-12T03:05:55;22.20;;;12.80;;
68357;SDS011;55276;53.260;50.222;2022-07-12T03:08:23;25.40;;;11.55;;
68357;SDS011;55276;53.260;50.222;2022-07-12T03:10:49;22.00;;;12.40;;
68357;SDS011;55276;53.260;50.222;2022-07-12T03:13:16;21.80;;;13.27;;
68357;SDS011;55276;53.260;50.222;2022-07-12T03:15:42;24.20;;;13.27;;
68357;SDS011;55276;53.260;50.222;2022-07-12T03:18:11;19.20;;;12.20;;
68357;SDS011;55276;53.260;50.222;2022-07-12T03:20:37;40.22;;;17.08;;
68357;SDS011;55276;53.260;50.222;2022-07-12T03:23:03;22.00;;;12.55;;
68357;SDS011;55276;53.260;50.222;2022-07-12T03:25:29;31.33;;;14.43;;
68357;SDS011;55276;53.260;50.222;2022-07-12T03:27:55;40.60;;;15.20;;
68357;SDS011;55276;53.260;50.222;2022-07-12T03:30:21;20.42;;;12.75;;
68357;SDS011;55276;53.260;50.222;2022-07-12T03:32:47;21.63;;;12.02;;
68357;SDS011;55276;53.260;50.222;2022-07-12T03:35:14;21.83;;;11.70;;
68357;SDS011;55276;53.260;50.222;2022-07-12T03:37:44;20.45;;;10.95;;
68357;SDS011;55276;53.260;50.222;2022-07-12T03:40:12;17.83;;;10.52;;
68357;SDS011;55276;53.260;50.222;2022-07-12T03:42:39;25.13;;;12.20;;
68357;SDS011;55276;53.260;50.222;2022-07-12T03:45:05;23.00;;;11.68;;
68357;SDS011;55276;53.260;50.222;2022-07-12T03:47:32;17.23;;;11.50;;
68357;SDS011;55276;53.260;50.222;2022-07-12T03:50:01;16.75;;;11.05;;
68357;SDS011;55276;53.260;50.222;2022-07-12T03:52:30;24.95;;;11.10;;
68357;SDS011;55276;53.260;50.222;2022-07-12T03:57:23;19.67;;;10.60;;
68357;SDS011;55276;53.260;50.222;2022-07-12T03:59:51;20.88;;;11.45;;
68357;SDS011;55276;53.260;50.222;2022-07-12T04:02:17;23.77;;;10.50;;
68357;SDS011;55276;53.260;50.222;2022-07-12T04:04:44;23.00;;;11.82;;
68357;SDS011;55276;53.260;50.222;2022-07-12T04:07:10;18.57;;;11.40;;
68357;SDS011;55276;53.260;50.222;2022-07-12T04:09:37;22.90;;;11.30;;
68357;SDS011;55276;53.260;50.222;2022-07-12T04:12:29;24.77;;;10.98;;
68357;SDS011;55276;53.260;50.222;2022-07-12T04:14:55;19.35;;;10.80;;
68357;SDS011;55276;53.260;50.222;2022-07-12T04:17:21;23.65;;;11.18;;
68357;SDS011;55276;53.260;50.222;2022-07-12T04:19:47;18.37;;;9.93;;
68357;SDS011;55276;53.260;50.222;2022-07-12T04:22:13;25.90;;;10.93;;
68357;SDS011;55276;53.260;50.222;2022-07-12T04:24:39;18.08;;;10.88;;
68357;SDS011;55276;53.260;50.222;2022-07-12T04:27:05;14.45;;;10.48;;
68357;SDS011;55276;53.260;50.222;2022-07-12T04:29:31;16.38;;;10.45;;
68357;SDS011;55276;53.260;50.222;2022-07-12T04:31:57;18.40;;;10.98;;
68357;SDS011;55276;53.260;50.222;2022-07-12T04:34:23;18.08;;;10.68;;
68357;SDS011;55276;53.260;50.222;2022-07-12T04:36:49;17.02;;;9.95;;
68357;SDS011;55276;53.260;50.222;2022-07-12T04:39:15;19.92;;;10.85;;
68357;SDS011;55276;53.260;50.222;2022-07-12T04:41:42;19.95;;;10.20;;
68357;SDS011;55276;53.260;50.222;2022-07-12T04:44:08;17.95;;;10.68;;
68357;SDS011;55276;53.260;50.222;2022-07-12T04:46:34;22.98;;;11.27;;
68357;SDS011;55276;53.260;50.222;2022-07-12T04:49:00;18.35;;;10.10;;
68357;SDS011;55276;53.260;50.222;2022-07-12T04:51:27;16.38;;;9.63;;
68357;SDS011;55276;53.260;50.222;2022-07-12T04:53:53;18.25;;;10.30;;
68357;SDS011;55276;53.260;50.222;2022-07-12T04:56:19;18.65;;;10.48;;
68357;SDS011;55276;53.260;50.222;2022-07-12T04:58:45;17.10;;;10.93;;
68357;SDS011;55276;53.260;50.222;2022-07-12T05:01:11;24.77;;;11.10;;
68357;SDS011;55276;53.260;50.222;2022-07-12T05:03:38;18.10;;;10.93;;
68357;SDS011;55276;53.260;50.222;2022-07-12T05:06:04;19.45;;;10.25;;
68357;SDS011;55276;53.260;50.222;2022-07-12T05:08:32;15.65;;;10.52;;
68357;SDS011;55276;53.260;50.222;2022-07-12T05:10:59;21.33;;;11.07;;
68357;SDS011;55276;53.260;50.222;2022-07-12T05:13:25;14.20;;;10.32;;
68357;SDS011;55276;53.260;50.222;2022-07-12T05:15:51;22.77;;;10.15;;
68357;SDS011;55276;53.260;50.222;2022-07-12T05:18:17;16.52;;;10.55;;
68357;SDS011;55276;53.260;50.222;2022-07-12T05:20:43;19.67;;;10.73;;
68357;SDS011;55276;53.260;50.222;2022-07-12T05:23:09;16.00;;;9.95;;
68357;SDS011;55276;53.260;50.222;2022-07-12T05:25:35;18.08;;;10.73;;
68357;SDS011;55276;53.260;50.222;2022-07-12T05:28:02;22.05;;;10.35;;
68357;SDS011;55276;53.260;50.222;2022-07-12T05:30:29;18.63;;;10.43;;
68357;SDS011;55276;53.260;50.222;2022-07-12T05:32:55;15.93;;;10.90;;
68357;SDS011;55276;53.260;50.222;2022-07-12T05:35:21;20.40;;;10.83;;
68357;SDS011;55276;53.260;50.222;2022-07-12T05:37:47;22.88;;;10.63;;
68357;SDS011;55276;53.260;50.222;2022-07-12T05:40:13;20.40;;;10.35;;
68357;SDS011;55276;53.260;50.222;2022-07-12T05:42:39;17.20;;;10.23;;
68357;SDS011;55276;53.260;50.222;2022-07-12T05:45:06;20.03;;;10.57;;
68357;SDS011;55276;53.260;50.222;2022-07-12T05:47:33;23.20;;;11.25;;
68357;SDS011;55276;53.260;50.222;2022-07-12T05:49:59;20.48;;;10.90;;
68357;SDS011;55276;53.260;50.222;2022-07-12T05:52:25;17.30;;;10.52;;
68357;SDS011;55276;53.260;50.222;2022-07-12T05:55:09;19.65;;;10.55;;
68357;SDS011;55276;53.260;50.222;2022-07-12T05:57:35;19.90;;;10.67;;
68357;SDS011;55276;53.260;50.222;2022-07-12T06:00:02;18.45;;;9.40;;
68357;SDS011;55276;53.260;50.222;2022-07-12T06:02:29;18.13;;;10.02;;
68357;SDS011;55276;53.260;50.222;2022-07-12T06:04:55;16.23;;;9.70;;
68357;SDS011;55276;53.260;50.222;2022-07-12T06:07:21;18.73;;;10.10;;
68357;SDS011;55276;53.260;50.222;2022-07-12T06:09:47;20.47;;;9.70;;
68357;SDS011;55276;53.260;50.222;2022-07-12T06:12:13;19.63;;;9.90;;
68357;SDS011;55276;53.260;50.222;2022-07-12T06:14:39;18.20;;;8.90;;
68357;SDS011;55276;53.260;50.222;2022-07-12T06:17:05;17.03;;;9.07;;
68357;SDS011;55276;53.260;50.222;2022-07-12T06:19:34;13.13;;;7.95;;
68357;SDS011;55276;53.260;50.222;2022-07-12T06:22:00;19.67;;;8.48;;
68357;SDS011;55276;53.260;50.222;2022-07-12T06:24:26;11.98;;;8.25;;
68357;SDS011;55276;53.260;50.222;2022-07-12T06:26:52;16.83;;;8.73;;
68357;SDS011;55276;53.260;50.222;2022-07-12T06:29:18;16.77;;;8.67;;
68357;SDS011;55276;53.260;50.222;2022-07-12T06:31:44;16.43;;;7.83;;
68357;SDS011;55276;53.260;50.222;2022-07-12T06:34:10;12.13;;;8.00;;
68357;SDS011;55276;53.260;50.222;2022-07-12T06:36:36;16.63;;;7.73;;
68357;SDS011;55276;53.260;50.222;2022-07-12T06:39:02;11.03;;;7.07;;
68357;SDS011;55276;53.260;50.222;2022-07-12T06:41:28;12.23;;;7.47;;
68357;SDS011;55276;53.260;50.222;2022-07-12T06:43:55;11.57;;;7.50;;
68357;SDS011;55276;53.260;50.222;2022-07-12T06:46:21;13.40;;;7.50;;
68357;SDS011;55276;53.260;50.222;2022-07-12T06:48:47;9.47;;;7.17;;
68357;SDS011;55276;53.260;50.222;2022-07-12T06:51:13;16.43;;;7.60;;
68357;SDS011;55276;53.260;50.222;2022-07-12T06:53:45;13.18;;;7.13;;
68357;SDS011;55276;53.260;50.222;2022-07-12T06:56:11;16.70;;;7.20;;
68357;SDS011;55276;53.260;50.222;2022-07-12T06:58:37;11.25;;;7.32;;
68357;SDS011;55276;53.260;50.222;2022-07-12T07:01:03;11.02;;;6.50;;
68357;SDS011;55276;53.260;50.222;2022-07-12T07:03:29;13.98;;;6.68;;
68357;SDS011;55276;53.260;50.222;2022-07-12T07:05:56;10.23;;;6.90;;
68357;SDS011;55276;53.260;50.222;2022-07-12T07:08:22;15.02;;;6.53;;
68357;SDS011;55276;53.260;50.222;2022-07-12T07:10:49;12.55;;;6.85;;
68357;SDS011;55276;53.260;50.222;2022-07-12T07:13:15;12.55;;;6.80;;
68357;SDS011;55276;53.260;50.222;2022-07-12T07:15:41;7.97;;;5.55;;
68357;SDS011;55276;53.260;50.222;2022-07-12T07:20:34;14.70;;;6.13;;
68357;SDS011;55276;53.260;50.222;2022-07-12T07:23:00;14.25;;;6.68;;
68357;SDS011;55276;53.260;50.222;2022-07-12T07:25:26;14.75;;;6.60;;
68357;SDS011;55276;53.260;50.222;2022-07-12T07:27:52;9.95;;;6.45;;
68357;SDS011;55276;53.260;50.222;2022-07-12T07:30:18;10.35;;;6.47;;
68357;SDS011;55276;53.260;50.222;2022-07-12T07:33:02;13.75;;;6.70;;
68357;SDS011;55276;53.260;50.222;2022-07-12T07:35:28;12.40;;;7.03;;
68357;SDS011;55276;53.260;50.222;2022-07-12T07:37:55;16.67;;;6.60;;
68357;SDS011;55276;53.260;50.222;2022-07-12T07:40:21;14.77;;;6.88;;
68357;SDS011;55276;53.260;50.222;2022-07-12T07:42:47;10.95;;;6.65;;
68357;SDS011;55276;53.260;50.222;2022-07-12T07:45:15;13.30;;;6.93;;
68357;SDS011;55276;53.260;50.222;2022-07-12T07:47:42;13.93;;;6.40;;
68357;SDS011;55276;53.260;50.222;2022-07-12T07:50:09;14.85;;;6.80;;
68357;SDS011;55276;53.260;50.222;2022-07-12T07:52:36;15.35;;;5.90;;
68357;SDS011;55276;53.260;50.222;2022-07-12T07:55:02;12.43;;;6.20;;
68357;SDS011;55276;53.260;50.222;2022-07-12T07:57:29;9.73;;;5.97;;
68357;SDS011;55276;53.260;50.222;2022-07-12T07:59:55;12.93;;;5.72;;
68357;SDS011;55276;53.260;50.222;2022-07-12T08:02:21;13.50;;;5.93;;
68357;SDS011;55276;53.260;50.222;2022-07-12T08:04:47;11.48;;;6.53;;
68357;SDS011;55276;53.260;50.222;2022-07-12T08:07:13;10.90;;;6.13;;
68357;SDS011;55276;53.260;50.222;2022-07-12T08:09:39;11.55;;;6.10;;
68357;SDS011;55276;53.260;50.222;2022-07-12T08:12:05;15.23;;;6.07;;
68357;SDS011;55276;53.260;50.222;2022-07-12T08:14:32;13.20;;;5.68;;
68357;SDS011;55276;53.260;50.222;2022-07-12T08:16:58;10.13;;;5.28;;
68357;SDS011;55276;53.260;50.222;2022-07-12T08:19:24;9.77;;;5.10;;
68357;SDS011;55276;53.260;50.222;2022-07-12T08:21:50;9.13;;;5.38;;
68357;SDS011;55276;53.260;50.222;2022-07-12T08:24:16;22.88;;;5.10;;
68357;SDS011;55276;53.260;50.222;2022-07-12T08:26:42;10.27;;;4.85;;
68357;SDS011;55276;53.260;50.222;2022-07-12T08:29:08;6.97;;;4.82;;
68357;SDS011;55276;53.260;50.222;2022-07-12T08:31:34;10.95;;;4.90;;
68357;SDS011;55276;53.260;50.222;2022-07-12T08:34:01;13.68;;;4.85;;
68357;SDS011;55276;53.260;50.222;2022-07-12T08:36:27;10.13;;;5.22;;
68357;SDS011;55276;53.260;50.222;2022-07-12T08:38:54;13.90;;;4.70;;
68357;SDS011;55276;53.260;50.222;2022-07-12T08:41:20;6.90;;;4.10;;
68357;SDS011;55276;53.260;50.222;2022-07-12T08:43:46;12.20;;;3.95;;
68357;SDS011;55276;53.260;50.222;2022-07-12T08:46:13;14.35;;;4.03;;
68357;SDS011;55276;53.260;50.222;2022-07-12T08:48:41;20.90;;;4.43;;
68357;SDS011;55276;53.260;50.222;2022-07-12T08:51:09;10.35;;;4.03;;
68357;SDS011;55276;53.260;50.222;2022-07-12T08:53:37;7.63;;;4.10;;
68357;SDS011;55276;53.260;50.222;2022-07-12T08:56:04;11.38;;;4.10;;
68357;SDS011;55276;53.260;50.222;2022-07-12T08:58:31;11.13;;;4.00;;
68357;SDS011;55276;53.260;50.222;2022-07-12T09:00:57;10.40;;;4.20;;
68357;SDS011;55276;53.260;50.222;2022-07-12T09:03:23;10.63;;;3.92;;
68357;SDS011;55276;53.260;50.222;2022-07-12T09:05:52;13.35;;;4.18;;
68357;SDS011;55276;53.260;50.222;2022-07-12T09:08:24;17.95;;;4.05;;
68357;SDS011;55276;53.260;50.222;2022-07-12T09:10:53;12.82;;;4.32;;
68357;SDS011;55276;53.260;50.222;2022-07-12T09:13:20;10.20;;;3.85;;
68357;SDS011;55276;53.260;50.222;2022-07-12T09:15:46;9.30;;;4.10;;
68357;SDS011;55276;53.260;50.222;2022-07-12T09:18:13;6.47;;;3.83;;
68357;SDS011;55276;53.260;50.222;2022-07-12T09:20:41;6.88;;;3.90;;
68357;SDS011;55276;53.260;50.222;2022-07-12T09:23:09;13.05;;;4.50;;
68357;SDS011;55276;53.260;50.222;2022-07-12T09:25:37;8.20;;;4.43;;
68357;SDS011;55276;53.260;50.222;2022-07-12T09:28:05;9.85;;;3.80;;
68357;SDS011;55276;53.260;50.222;2022-07-12T09:30:33;9.05;;;3.90;;
68357;SDS011;55276;53.260;50.222;2022-07-12T09:33:03;9.65;;;3.85;;
68357;SDS011;55276;53.260;50.222;2022-07-12T09:41:04;14.20;;;3.80;;
68357;SDS011;55276;53.260;50.222;2022-07-12T09:43:31;9.70;;;3.80;;
68357;SDS011;55276;53.260;50.222;2022-07-12T09:45:57;12.05;;;4.22;;
68357;SDS011;55276;53.260;50.222;2022-07-12T09:48:26;8.00;;;3.83;;
68357;SDS011;55276;53.260;50.222;2022-07-12T09:50:55;11.05;;;4.40;;
68357;SDS011;55276;53.260;50.222;2022-07-12T09:53:28;9.55;;;3.97;;
68357;SDS011;55276;53.260;50.222;2022-07-12T09:56:03;12.35;;;4.22;;
68357;SDS011;55276;53.260;50.222;2022-07-12T09:58:32;14.07;;;4.32;;
68357;SDS011;55276;53.260;50.222;2022-07-12T10:01:12;13.20;;;4.05;;
68357;SDS011;55276;53.260;50.222;2022-07-12T10:03:42;10.77;;;4.10;;
68357;SDS011;55276;53.260;50.222;2022-07-12T10:06:09;14.13;;;4.13;;
68357;SDS011;55276;53.260;50.222;2022-07-12T10:08:38;10.57;;;3.88;;
68357;SDS011;55276;53.260;50.222;2022-07-12T10:11:06;6.10;;;3.80;;
68357;SDS011;55276;53.260;50.222;2022-07-12T10:16:00;10.70;;;3.80;;
68357;SDS011;55276;53.260;50.222;2022-07-12T10:18:28;11.57;;;4.28;;
68357;SDS011;55276;53.260;50.222;2022-07-12T10:20:54;11.80;;;3.90;;
68357;SDS011;55276;53.260;50.222;2022-07-12T10:25:52;13.18;;;4.45;;
68357;SDS011;55276;53.260;50.222;2022-07-12T10:28:19;9.35;;;3.90;;
68357;SDS011;55276;53.260;50.222;2022-07-12T10:30:49;9.85;;;4.20;;
68357;SDS011;55276;53.260;50.222;2022-07-12T10:33:21;17.58;;;3.90;;
68357;SDS011;55276;53.260;50.222;2022-07-12T10:38:23;8.50;;;3.75;;
68357;SDS011;55276;53.260;50.222;2022-07-12T10:40:51;10.95;;;4.00;;
68357;SDS011;55276;53.260;50.222;2022-07-12T10:43:20;12.25;;;3.85;;
68357;SDS011;55276;53.260;50.222;2022-07-12T10:46:13;11.60;;;4.03;;
68357;SDS011;55276;53.260;50.222;2022-07-12T10:48:43;9.40;;;4.20;;
68357;SDS011;55276;53.260;50.222;2022-07-12T10:51:13;10.10;;;3.90;;
68357;SDS011;55276;53.260;50.222;2022-07-12T10:53:45;8.45;;;4.55;;
68357;SDS011;55276;53.260;50.222;2022-07-12T10:56:18;8.52;;;3.95;;
68357;SDS011;55276;53.260;50.222;2022-07-12T11:01:25;10.63;;;4.75;;
68357;SDS011;55276;53.260;50.222;2022-07-12T11:04:07;7.43;;;3.97;;
68357;SDS011;55276;53.260;50.222;2022-07-12T11:06:39;13.05;;;4.38;;
68357;SDS011;55276;53.260;50.222;2022-07-12T11:09:08;7.95;;;4.18;;
68357;SDS011;55276;53.260;50.222;2022-07-12T11:14:09;9.07;;;3.97;;
68357;SDS011;55276;53.260;50.222;2022-07-12T11:16:46;12.55;;;4.10;;
68357;SDS011;55276;53.260;50.222;2022-07-12T11:19:13;7.57;;;3.50;;
68357;SDS011;55276;53.260;50.222;2022-07-12T11:21:43;7.72;;;3.55;;
68357;SDS011;55276;53.260;50.222;2022-07-12T11:24:20;7.60;;;4.07;;
68357;SDS011;55276;53.260;50.222;2022-07-12T11:26:49;7.00;;;3.22;;
68357;SDS011;55276;53.260;50.222;2022-07-12T11:29:16;10.43;;;3.22;;
68357;SDS011;55276;53.260;50.222;2022-07-12T11:31:43;28.55;;;5.20;;
68357;SDS011;55276;53.260;50.222;2022-07-12T11:34:22;7.78;;;2.92;;
68357;SDS011;55276;53.260;50.222;2022-07-12T11:36:53;10.00;;;3.85;;
68357;SDS011;55276;53.260;50.222;2022-07-12T11:39:30;8.52;;;3.47;;
68357;SDS011;55276;53.260;50.222;2022-07-12T11:42:02;10.45;;;3.95;;
68357;SDS011;55276;53.260;50.222;2022-07-12T11:44:46;9.27;;;3.67;;
68357;SDS011;55276;53.260;50.222;2022-07-12T11:47:13;8.80;;;3.70;;
68357;SDS011;55276;53.260;50.222;2022-07-12T11:49:45;11.80;;;3.42;;
68357;SDS011;55276;53.260;50.222;2022-07-12T11:52:16;11.82;;;3.45;;
68357;SDS011;55276;53.260;50.222;2022-07-12T11:54:47;17.45;;;3.70;;
68357;SDS011;55276;53.260;50.222;2022-07-12T11:57:14;14.73;;;3.60;;
68357;SDS011;55276;53.260;50.222;2022-07-12T11:59:44;6.75;;;3.45;;
68357;SDS011;55276;53.260;50.222;2022-07-12T12:02:10;15.18;;;4.80;;
68357;SDS011;55276;53.260;50.222;2022-07-12T12:07:17;9.57;;;4.05;;
68357;SDS011;55276;53.260;50.222;2022-07-12T12:12:45;9.90;;;4.10;;
68357;SDS011;55276;53.260;50.222;2022-07-12T12:15:16;11.60;;;4.00;;
68357;SDS011;55276;53.260;50.222;2022-07-12T12:17:56;9.50;;;4.05;;
68357;SDS011;55276;53.260;50.222;2022-07-12T12:22:52;7.45;;;3.40;;
68357;SDS011;55276;53.260;50.222;2022-07-12T12:25:23;5.80;;;3.35;;
68357;SDS011;55276;53.260;50.222;2022-07-12T12:28:00;6.80;;;3.75;;
68357;SDS011;55276;53.260;50.222;2022-07-12T12:30:31;8.27;;;3.83;;
68357;SDS011;55276;53.260;50.222;2022-07-12T12:33:00;7.80;;;3.92;;
68357;SDS011;55276;53.260;50.222;2022-07-12T12:35:32;8.55;;;4.38;;
68357;SDS011;55276;53.260;50.222;2022-07-12T12:38:00;9.48;;;4.57;;
68357;SDS011;55276;53.260;50.222;2022-07-12T12:40:30;9.15;;;4.38;;
68357;SDS011;55276;53.260;50.222;2022-07-12T12:43:09;7.00;;;4.40;;
68357;SDS011;55276;53.260;50.222;2022-07-12T12:48:21;4.60;;;3.10;;
68357;SDS011;55276;53.260;50.222;2022-07-12T12:50:50;4.40;;;3.17;;
68357;SDS011;55276;53.260;50.222;2022-07-12T12:53:20;4.15;;;3.03;;
68357;SDS011;55276;53.260;50.222;2022-07-12T12:55:51;14.00;;;11.07;;
68357;SDS011;55276;53.260;50.222;2022-07-12T12:58:20;8.00;;;4.20;;
68357;SDS011;55276;53.260;50.222;2022-07-12T13:00:48;7.65;;;4.13;;
68357;SDS011;55276;53.260;50.222;2022-07-12T13:03:17;5.45;;;3.70;;
68357;SDS011;55276;53.260;50.222;2022-07-12T13:05:45;10.95;;;4.50;;
68357;SDS011;55276;53.260;50.222;2022-07-12T13:08:14;9.10;;;4.15;;
68357;SDS011;55276;53.260;50.222;2022-07-12T13:10:41;6.82;;;4.20;;
68357;SDS011;55276;53.260;50.222;2022-07-12T13:13:09;8.73;;;4.25;;
68357;SDS011;55276;53.260;50.222;2022-07-12T13:18:03;5.70;;;3.75;;
68357;SDS011;55276;53.260;50.222;2022-07-12T13:20:30;14.68;;;4.50;;
68357;SDS011;55276;53.260;50.222;2022-07-12T13:25:23;9.70;;;4.43;;
68357;SDS011;55276;53.260;50.222;2022-07-12T13:27:50;10.82;;;4.13;;
68357;SDS011;55276;53.260;50.222;2022-07-12T13:30:18;10.10;;;4.80;;
68357;SDS011;55276;53.260;50.222;2022-07-12T13:32:45;17.33;;;5.40;;
68357;SDS011;55276;53.260;50.222;2022-07-12T13:35:12;17.45;;;6.20;;
68357;SDS011;55276;53.260;50.222;2022-07-12T13:37:39;15.30;;;4.80;;
68357;SDS011;55276;53.260;50.222;2022-07-12T13:40:07;17.60;;;5.30;;
68357;SDS011;55276;53.260;50.222;2022-07-12T13:42:49;19.30;;;5.38;;
68357;SDS011;55276;53.260;50.222;2022-07-12T13:45:20;12.40;;;4.90;;
68357;SDS011;55276;53.260;50.222;2022-07-12T13:47:51;10.68;;;4.60;;
68357;SDS011;55276;53.260;50.222;2022-07-12T13:50:19;12.65;;;5.25;;
68357;SDS011;55276;53.260;50.222;2022-07-12T13:52:49;15.48;;;5.43;;
68357;SDS011;55276;53.260;50.222;2022-07-12T13:55:16;12.95;;;5.60;;
68357;SDS011;55276;53.260;50.222;2022-07-12T13:57:43;11.15;;;5.13;;
68357;SDS011;55276;53.260;50.222;2022-07-12T14:00:13;15.32;;;4.68;;
68357;SDS011;55276;53.260;50.222;2022-07-12T14:02:41;15.98;;;4.50;;
68357;SDS011;55276;53.260;50.222;2022-07-12T14:05:12;22.25;;;4.70;;
68357;SDS011;55276;53.260;50.222;2022-07-12T14:07:40;11.02;;;3.72;;
68357;SDS011;55276;53.260;50.222;2022-07-12T14:10:09;19.02;;;4.72;;
68357;SDS011;55276;53.260;50.222;2022-07-12T14:12:36;9.38;;;4.22;;
68357;SDS011;55276;53.260;50.222;2022-07-12T14:15:02;15.32;;;4.32;;
68357;SDS011;55276;53.260;50.222;2022-07-12T14:17:38;13.00;;;4.40;;
68357;SDS011;55276;53.260;50.222;2022-07-12T14:20:05;15.45;;;4.60;;
68357;SDS011;55276;53.260;50.222;2022-07-12T14:22:33;17.05;;;5.93;;
68357;SDS011;55276;53.260;50.222;2022-07-12T14:24:59;16.48;;;5.68;;
68357;SDS011;55276;53.260;50.222;2022-07-12T14:27:25;13.45;;;5.72;;
68357;SDS011;55276;53.260;50.222;2022-07-12T14:29:51;16.95;;;5.47;;
68357;SDS011;55276;53.260;50.222;2022-07-12T14:32:18;13.27;;;5.88;;
68357;SDS011;55276;53.260;50.222;2022-07-12T14:34:44;13.65;;;5.80;;
68357;SDS011;55276;53.260;50.222;2022-07-12T14:37:10;13.77;;;5.60;;
68357;SDS011;55276;53.260;50.222;2022-07-12T14:39:36;16.52;;;5.88;;
68357;SDS011;55276;53.260;50.222;2022-07-12T14:42:03;11.93;;;5.47;;
68357;SDS011;55276;53.260;50.222;2022-07-12T14:44:30;9.57;;;5.03;;
68357;SDS011;55276;53.260;50.222;2022-07-12T14:46:56;9.45;;;4.63;;
68357;SDS011;55276;53.260;50.222;2022-07-12T14:49:22;10.38;;;5.13;;
68357;SDS011;55276;53.260;50.222;2022-07-12T14:51:48;12.30;;;4.75;;
68357;SDS011;55276;53.260;50.222;2022-07-12T14:54:15;10.80;;;5.15;;
68357;SDS011;55276;53.260;50.222;2022-07-12T14:56:41;11.05;;;4.85;;
68357;SDS011;55276;53.260;50.222;2022-07-12T14:59:08;11.52;;;4.90;;
68357;SDS011;55276;53.260;50.222;2022-07-12T15:01:34;12.60;;;5.10;;
68357;SDS011;55276;53.260;50.222;2022-07-12T15:04:00;12.38;;;4.90;;